createdAt,value
2019-02-06T00:04:03.375Z,-4.40
2019-02-06T00:06:48.593Z,-4.40
2019-02-06T00:09:30.579Z,-4.40
2019-02-06T00:12:12.442Z,-4.40
2019-02-06T00:14:55.125Z,-4.40
2019-02-06T00:17:37.949Z,-4.40
2019-02-06T00:20:19.662Z,-4.50
2019-02-06T00:23:01.523Z,-4.60
2019-02-06T00:25:44.095Z,-4.60
2019-02-06T00:28:26.659Z,-4.60
2019-02-06T00:31:08.582Z,-4.60
2019-02-06T00:33:50.173Z,-4.50
2019-02-06T00:36:31.901Z,-4.50
2019-02-06T00:39:13.831Z,-4.50
2019-02-06T00:41:55.694Z,-4.50
2019-02-06T00:44:37.642Z,-4.60
2019-02-06T00:47:19.337Z,-4.70
2019-02-06T00:50:01.540Z,-4.70
2019-02-06T00:52:43.837Z,-4.70
2019-02-06T00:55:25.823Z,-4.80
2019-02-06T00:58:07.926Z,-4.80
2019-02-06T01:00:50.199Z,-4.90
2019-02-06T01:03:32.199Z,-4.90
2019-02-06T01:06:14.350Z,-4.80
2019-02-06T01:08:56.603Z,-4.80
2019-02-06T01:11:38.365Z,-4.80
2019-02-06T01:14:18.789Z,-4.80
2019-02-06T01:17:08.511Z,-4.80
2019-02-06T01:19:52.402Z,-4.80
2019-02-06T01:22:34.782Z,-4.80
2019-02-06T01:25:16.972Z,-4.80
2019-02-06T01:27:59.123Z,-4.90
2019-02-06T01:33:59.670Z,-4.90
2019-02-06T01:36:41.571Z,-4.90
2019-02-06T01:39:23.503Z,-4.90
2019-02-06T01:42:05.546Z,-4.90
2019-02-06T01:44:47.514Z,-4.90
2019-02-06T01:47:29.662Z,-5.00
2019-02-06T01:50:00.032Z,-5.00
2019-02-06T01:52:50.954Z,-5.00
2019-02-06T01:55:34.893Z,-5.00
2019-02-06T01:58:16.618Z,-5.00
2019-02-06T02:00:58.855Z,-5.10
2019-02-06T02:03:40.695Z,-5.10
2019-02-06T02:06:22.440Z,-5.20
2019-02-06T02:09:06.242Z,-5.20
2019-02-06T02:11:48.578Z,-5.20
2019-02-06T02:14:30.921Z,-5.30
2019-02-06T02:17:13.490Z,-5.30
2019-02-06T02:19:55.423Z,-5.30
2019-02-06T02:22:37.593Z,-5.30
2019-02-06T02:25:19.702Z,-5.30
2019-02-06T02:28:01.850Z,-5.30
2019-02-06T02:30:50.191Z,-5.40
2019-02-06T02:33:34.151Z,-5.40
2019-02-06T02:36:16.589Z,-5.50
2019-02-06T02:38:59.056Z,-5.50
2019-02-06T02:41:41.674Z,-5.50
2019-02-06T02:44:23.653Z,-5.50
2019-02-06T02:47:05.867Z,-5.50
2019-02-06T02:49:47.982Z,-5.40
2019-02-06T02:52:29.763Z,-5.50
2019-02-06T02:55:11.683Z,-5.50
2019-02-06T02:57:53.798Z,-5.50
2019-02-06T03:04:02.927Z,-5.50
2019-02-06T03:06:45.354Z,-5.60
2019-02-06T03:09:27.950Z,-5.70
2019-02-06T03:12:10.986Z,-5.70
2019-02-06T03:14:52.978Z,-5.80
2019-02-06T03:17:34.759Z,-5.80
2019-02-06T03:20:16.954Z,-5.90
2019-02-06T03:22:57.633Z,-5.80
2019-02-06T03:25:47.050Z,-5.80
2019-02-06T03:28:31.100Z,-5.70
2019-02-06T03:31:13.744Z,-5.70
2019-02-06T03:33:55.414Z,-5.70
2019-02-06T03:36:40.626Z,-5.70
2019-02-06T03:39:21.661Z,-5.70
2019-02-06T03:42:03.810Z,-5.70
2019-02-06T03:44:45.680Z,-5.80
2019-02-06T03:47:27.586Z,-5.80
2019-02-06T03:50:09.958Z,-5.80
2019-02-06T03:52:59.397Z,-5.80
2019-02-06T03:55:42.742Z,-5.80
2019-02-06T03:58:25.389Z,-5.80
2019-02-06T04:01:07.326Z,-5.80
2019-02-06T04:03:49.409Z,-5.80
2019-02-06T04:06:31.919Z,-5.90
2019-02-06T04:09:13.949Z,-5.80
2019-02-06T04:11:55.638Z,-5.80
2019-02-06T04:14:37.402Z,-5.80
2019-02-06T04:17:19.235Z,-5.70
2019-02-06T04:20:01.593Z,-5.80
2019-02-06T04:22:43.490Z,-5.80
2019-02-06T04:25:25.481Z,-5.80
2019-02-06T04:28:08.178Z,-5.80
2019-02-06T04:30:50.812Z,-5.80
2019-02-06T04:33:32.577Z,-5.70
2019-02-06T04:36:14.679Z,-5.70
2019-02-06T04:38:56.579Z,-5.70
2019-02-06T04:41:39.991Z,-5.80
2019-02-06T04:44:22.550Z,-5.80
2019-02-06T04:47:04.493Z,-5.90
2019-02-06T04:49:46.275Z,-5.90
2019-02-06T04:52:28.427Z,-5.90
2019-02-06T04:55:10.375Z,-6.00
2019-02-06T04:57:52.306Z,-5.90
2019-02-06T05:00:34.042Z,-5.90
2019-02-06T05:03:16.047Z,-5.90
2019-02-06T05:05:58.129Z,-5.90
2019-02-06T05:08:40.683Z,-6.00
2019-02-06T05:11:23.047Z,-6.00
2019-02-06T05:14:05.030Z,-6.00
2019-02-06T05:16:47.579Z,-6.10
2019-02-06T05:19:29.468Z,-6.10
2019-02-06T05:22:11.571Z,-6.10
2019-02-06T05:24:53.930Z,-6.10
2019-02-06T05:27:35.688Z,-6.00
2019-02-06T05:30:18.486Z,-6.00
2019-02-06T05:33:00.206Z,-6.00
2019-02-06T05:35:42.334Z,-6.00
2019-02-06T05:38:24.198Z,-6.00
2019-02-06T05:41:06.604Z,-6.00
2019-02-06T05:43:48.406Z,-6.00
2019-02-06T05:46:30.517Z,-6.10
2019-02-06T05:49:12.718Z,-6.10
2019-02-06T05:51:54.759Z,-6.20
2019-02-06T05:54:36.810Z,-6.20
2019-02-06T05:57:18.511Z,-6.30
2019-02-06T06:00:00.214Z,-6.20
2019-02-06T06:02:42.570Z,-6.20
2019-02-06T06:05:24.774Z,-6.10
2019-02-06T06:08:05.322Z,-6.10
2019-02-06T06:10:54.753Z,-6.10
2019-02-06T06:13:38.784Z,-6.10
2019-02-06T06:16:20.465Z,-6.10
2019-02-06T06:19:02.407Z,-6.10
2019-02-06T06:21:44.551Z,-6.20
2019-02-06T06:24:27.087Z,-6.20
2019-02-06T06:27:09.198Z,-6.20
2019-02-06T06:29:50.942Z,-6.10
2019-02-06T06:32:33.054Z,-6.10
2019-02-06T06:35:15.695Z,-6.10
2019-02-06T06:38:00.438Z,-5.60
2019-02-06T06:40:41.302Z,-5.10
2019-02-06T06:43:23.112Z,-4.70
2019-02-06T06:46:05.198Z,-4.50
2019-02-06T06:48:47.058Z,-4.30
2019-02-06T06:51:29.014Z,-4.10
2019-02-06T06:54:11.057Z,-3.80
2019-02-06T06:56:53.219Z,-3.60
2019-02-06T06:59:35.078Z,-3.20
2019-02-06T07:02:16.869Z,-2.70
2019-02-06T07:04:59.470Z,-2.40
2019-02-06T07:07:42.062Z,-2.40
2019-02-06T07:10:23.787Z,-2.10
2019-02-06T07:13:05.470Z,-1.80
2019-02-06T07:15:47.954Z,-1.30
2019-02-06T07:18:29.779Z,-1.00
2019-02-06T07:21:11.822Z,-0.80
2019-02-06T07:23:54.454Z,-0.30
2019-02-06T07:26:36.238Z,-0.20
2019-02-06T07:29:18.261Z,-0.20
2019-02-06T07:31:59.993Z,-0.20
2019-02-06T07:34:42.870Z,-0.30
2019-02-06T07:37:24.947Z,-0.30
2019-02-06T07:40:06.863Z,-0.10
2019-02-06T07:42:48.930Z,0.00
2019-02-06T07:45:30.802Z,0.20
2019-02-06T07:48:12.657Z,0.20
2019-02-06T07:50:54.678Z,0.40
2019-02-06T07:53:36.691Z,0.80
2019-02-06T07:56:18.798Z,1.00
2019-02-06T07:59:00.887Z,1.10
2019-02-06T08:01:43.147Z,1.10
2019-02-06T08:04:25.605Z,1.20
2019-02-06T08:07:07.782Z,1.40
2019-02-06T08:09:50.061Z,1.30
2019-02-06T08:12:32.221Z,1.10
2019-02-06T08:15:14.594Z,1.20
2019-02-06T08:17:56.329Z,1.40
2019-02-06T08:20:38.657Z,1.40
2019-02-06T08:23:20.330Z,1.40
2019-02-06T08:26:02.318Z,1.40
2019-02-06T08:28:44.622Z,1.60
2019-02-06T08:31:27.129Z,1.80
2019-02-06T08:34:09.077Z,1.80
2019-02-06T08:36:51.253Z,2.00
2019-02-06T08:39:33.333Z,2.30
2019-02-06T08:42:15.741Z,2.80
2019-02-06T08:44:58.639Z,2.70
2019-02-06T08:47:39.146Z,2.80
2019-02-06T08:50:28.559Z,3.00
2019-02-06T08:53:12.321Z,3.10
2019-02-06T08:55:54.574Z,2.90
2019-02-06T08:58:36.813Z,2.90
2019-02-06T09:01:19.390Z,2.80
2019-02-06T09:04:01.510Z,3.10
2019-02-06T09:06:43.562Z,3.60
2019-02-06T09:09:25.789Z,3.80
2019-02-06T09:12:08.363Z,4.10
2019-02-06T09:14:51.162Z,4.40
2019-02-06T09:17:33.196Z,4.70
2019-02-06T09:20:14.966Z,4.50
2019-02-06T09:22:57.447Z,4.60
2019-02-06T09:25:39.789Z,4.70
2019-02-06T09:28:22.098Z,4.80
2019-02-06T09:31:04.098Z,4.60
2019-02-06T09:33:46.268Z,4.70
2019-02-06T09:36:28.222Z,4.80
2019-02-06T09:39:11.911Z,4.70
2019-02-06T09:41:53.646Z,4.70
2019-02-06T09:44:35.766Z,4.60
2019-02-06T09:47:17.917Z,4.60
2019-02-06T09:49:59.940Z,4.60
2019-02-06T09:52:42.067Z,4.60
2019-02-06T09:55:24.287Z,4.50
2019-02-06T09:58:06.361Z,4.50
2019-02-06T10:00:49.006Z,4.50
2019-02-06T10:03:31.185Z,4.50
2019-02-06T10:06:13.329Z,4.60
2019-02-06T10:08:55.977Z,4.70
2019-02-06T10:11:36.501Z,4.80
2019-02-06T10:14:25.925Z,4.90
2019-02-06T10:17:15.047Z,5.00
2019-02-06T10:19:56.930Z,5.00
2019-02-06T10:22:38.794Z,5.00
2019-02-06T10:25:20.682Z,5.10
2019-02-06T10:28:02.635Z,5.10
2019-02-06T10:30:44.591Z,5.20
2019-02-06T10:33:26.706Z,5.30
2019-02-06T10:36:08.550Z,5.30
2019-02-06T10:38:50.370Z,5.40
2019-02-06T10:41:32.554Z,5.40
2019-02-06T10:44:14.846Z,5.50
2019-02-06T10:46:56.894Z,5.60
2019-02-06T10:49:39.226Z,5.70
2019-02-06T10:52:21.049Z,5.80
2019-02-06T10:55:04.553Z,5.80
2019-02-06T10:57:46.807Z,5.80
2019-02-06T11:00:29.919Z,5.80
2019-02-06T11:03:12.303Z,5.80
2019-02-06T11:05:54.795Z,5.90
2019-02-06T11:08:36.723Z,5.90
2019-02-06T11:11:18.647Z,6.00
2019-02-06T11:14:00.498Z,6.00
2019-02-06T11:16:42.790Z,6.00
2019-02-06T11:19:24.718Z,6.00
2019-02-06T11:22:06.398Z,6.00
2019-02-06T11:24:48.298Z,6.10
2019-02-06T11:27:31.143Z,6.00
2019-02-06T11:30:13.038Z,6.10
2019-02-06T11:32:55.053Z,6.10
2019-02-06T11:35:37.034Z,6.10
2019-02-06T11:38:19.114Z,6.20
2019-02-06T11:41:01.282Z,6.20
2019-02-06T11:43:43.538Z,6.20
2019-02-06T11:46:25.854Z,6.10
2019-02-06T11:49:08.677Z,6.10
2019-02-06T11:51:50.555Z,6.10
2019-02-06T11:54:33.083Z,6.10
2019-02-06T11:57:15.074Z,6.10
2019-02-06T11:59:57.330Z,6.20
2019-02-06T12:02:39.822Z,6.20
2019-02-06T12:05:21.981Z,6.20
2019-02-06T12:08:04.154Z,6.30
2019-02-06T12:10:46.270Z,6.30
2019-02-06T12:13:28.328Z,6.20
2019-02-06T12:16:10.178Z,6.30
2019-02-06T12:18:52.054Z,6.20
2019-02-06T12:21:33.850Z,6.20
2019-02-06T12:24:15.598Z,6.20
2019-02-06T12:26:58.206Z,6.20
2019-02-06T12:29:40.038Z,6.20
2019-02-06T12:32:22.702Z,6.20
2019-02-06T12:35:04.899Z,6.30
2019-02-06T12:37:46.493Z,6.40
2019-02-06T12:40:28.501Z,6.40
2019-02-06T12:43:11.197Z,6.40
2019-02-06T12:45:53.835Z,6.40
2019-02-06T12:48:35.678Z,6.40
2019-02-06T12:51:17.806Z,6.40
2019-02-06T12:54:00.216Z,6.40
2019-02-06T12:56:42.581Z,6.40
2019-02-06T12:59:24.333Z,6.50
2019-02-06T13:02:06.838Z,6.50
2019-02-06T13:04:48.875Z,6.60
2019-02-06T13:07:31.025Z,6.60
2019-02-06T13:10:13.106Z,6.70
2019-02-06T13:12:55.090Z,6.70
2019-02-06T13:15:37.676Z,6.60
2019-02-06T13:18:19.783Z,6.60
2019-02-06T13:21:01.928Z,6.70
2019-02-06T13:23:44.122Z,6.70
2019-02-06T13:26:25.934Z,6.60
2019-02-06T13:29:07.887Z,6.60
2019-02-06T13:31:49.797Z,6.70
2019-02-06T13:34:31.802Z,6.70
2019-02-06T13:37:14.030Z,6.70
2019-02-06T13:39:56.902Z,6.70
2019-02-06T13:42:38.603Z,6.70
2019-02-06T13:45:20.438Z,6.60
2019-02-06T13:48:03.534Z,6.70
2019-02-06T13:50:45.643Z,6.70
2019-02-06T13:53:28.233Z,6.70
2019-02-06T13:56:09.974Z,6.60
2019-02-06T13:58:52.226Z,6.60
2019-02-06T14:01:34.239Z,6.40
2019-02-06T14:04:15.933Z,6.30
2019-02-06T14:06:57.890Z,6.30
2019-02-06T14:09:40.053Z,6.40
2019-02-06T14:12:22.363Z,6.30
2019-02-06T14:15:04.302Z,6.30
2019-02-06T14:17:46.235Z,6.20
2019-02-06T14:20:28.325Z,6.30
2019-02-06T14:23:10.252Z,6.30
2019-02-06T14:25:56.864Z,6.30
2019-02-06T14:29:05.708Z,6.20
2019-02-06T14:31:49.790Z,6.20
2019-02-06T14:34:31.567Z,6.10
2019-02-06T14:37:13.566Z,6.00
2019-02-06T14:39:55.906Z,5.90
2019-02-06T14:42:37.894Z,5.90
2019-02-06T14:45:19.540Z,5.80
2019-02-06T14:48:01.630Z,5.70
2019-02-06T14:50:43.322Z,5.70
2019-02-06T14:53:25.738Z,5.60
2019-02-06T14:56:08.118Z,5.50
2019-02-06T14:58:50.020Z,5.50
2019-02-06T15:01:32.554Z,5.40
2019-02-06T15:04:16.023Z,5.30
2019-02-06T15:06:58.352Z,5.30
2019-02-06T15:09:40.050Z,5.30
2019-02-06T15:12:21.814Z,5.20
2019-02-06T15:15:03.797Z,5.20
2019-02-06T15:17:45.818Z,5.10
2019-02-06T15:20:28.326Z,5.10
2019-02-06T15:23:10.694Z,4.90
2019-02-06T15:25:52.586Z,4.80
2019-02-06T15:28:34.420Z,4.80
2019-02-06T15:31:17.101Z,4.80
2019-02-06T15:33:58.831Z,4.70
2019-02-06T15:36:40.743Z,4.50
2019-02-06T15:39:23.343Z,4.60
2019-02-06T15:42:05.336Z,4.60
2019-02-06T15:44:47.670Z,4.50
2019-02-06T15:47:29.472Z,4.40
2019-02-06T15:50:11.099Z,4.20
2019-02-06T15:52:53.493Z,4.00
2019-02-06T15:55:35.772Z,3.90
2019-02-06T15:58:35.406Z,3.60
2019-02-06T16:01:45.429Z,3.40
2019-02-06T16:07:37.785Z,3.00
2019-02-06T16:10:20.382Z,2.80
2019-02-06T16:13:02.454Z,2.60
2019-02-06T16:15:44.654Z,2.40
2019-02-06T16:18:26.812Z,2.20
2019-02-06T16:21:09.054Z,2.00
2019-02-06T16:23:54.160Z,1.90
2019-02-06T16:26:36.246Z,1.70
2019-02-06T16:29:18.165Z,1.60
2019-02-06T16:32:00.774Z,1.50
2019-02-06T16:34:42.842Z,1.40
2019-02-06T16:37:25.084Z,1.30
2019-02-06T16:40:07.786Z,1.20
2019-02-06T16:42:49.861Z,1.10
2019-02-06T16:45:31.654Z,1.00
2019-02-06T16:48:14.175Z,1.00
2019-02-06T16:50:56.102Z,0.90
2019-02-06T16:53:38.083Z,0.80
2019-02-06T16:56:19.982Z,0.70
2019-02-06T16:59:02.142Z,0.60
2019-02-06T17:01:44.025Z,0.60
2019-02-06T17:04:25.964Z,0.60
2019-02-06T17:07:08.326Z,0.50
2019-02-06T17:10:10.371Z,0.50
2019-02-06T17:13:18.904Z,0.40
2019-02-06T17:16:02.366Z,0.30
2019-02-06T17:18:44.486Z,0.20
2019-02-06T17:21:26.638Z,0.10
2019-02-06T17:24:09.741Z,0.00
2019-02-06T17:26:51.442Z,-0.10
2019-02-06T17:29:35.567Z,-0.20
2019-02-06T17:32:44.140Z,-0.30
2019-02-06T17:35:27.590Z,-0.40
2019-02-06T17:38:09.951Z,-0.50
2019-02-06T17:40:52.199Z,-0.50
2019-02-06T17:43:34.815Z,-0.60
2019-02-06T17:46:16.622Z,-0.60
2019-02-06T17:48:58.491Z,-0.60
2019-02-06T17:51:40.766Z,-0.70
2019-02-06T17:54:22.594Z,-0.70
2019-02-06T17:57:03.105Z,-0.70
2019-02-06T17:59:52.735Z,-0.70
2019-02-06T18:02:41.830Z,-0.70
2019-02-06T18:05:24.078Z,-0.70
2019-02-06T18:08:05.818Z,-0.70
2019-02-06T18:10:47.948Z,-0.70
2019-02-06T18:13:30.174Z,-0.80
2019-02-06T18:16:21.062Z,-0.90
2019-02-06T18:18:55.930Z,-0.90
2019-02-06T18:21:37.703Z,-0.90
2019-02-06T18:24:19.414Z,-1.00
2019-02-06T18:27:01.363Z,-1.10
2019-02-06T18:29:43.639Z,-1.20
2019-02-06T18:32:25.874Z,-1.20
2019-02-06T18:35:08.527Z,-1.20
2019-02-06T18:37:51.046Z,-1.30
2019-02-06T18:40:33.649Z,-1.30
2019-02-06T18:43:15.469Z,-1.30
2019-02-06T18:45:57.489Z,-1.40
2019-02-06T18:48:39.805Z,-1.40
2019-02-06T18:51:21.726Z,-1.50
2019-02-06T18:54:11.151Z,-1.60
2019-02-06T18:56:54.889Z,-1.60
2019-02-06T18:59:36.853Z,-1.70
2019-02-06T19:02:18.879Z,-1.70
2019-02-06T19:05:01.034Z,-1.70
2019-02-06T19:07:43.147Z,-1.70
2019-02-06T19:10:24.792Z,-1.80
2019-02-06T19:13:07.076Z,-1.90
2019-02-06T19:15:56.220Z,-2.00
2019-02-06T19:18:33.085Z,-2.00
2019-02-06T19:21:14.915Z,-2.10
2019-02-06T19:23:57.182Z,-2.10
2019-02-06T19:26:38.998Z,-1.80
2019-02-06T19:29:21.204Z,-1.70
2019-02-06T19:32:03.342Z,-1.60
2019-02-06T19:34:45.474Z,-1.80
2019-02-06T19:37:27.573Z,-1.90
2019-02-06T19:40:10.002Z,-2.00
2019-02-06T19:43:00.193Z,-2.10
2019-02-06T19:45:36.270Z,-2.20
2019-02-06T19:48:20.235Z,-2.30
2019-02-06T19:51:02.063Z,-2.30
2019-02-06T19:53:44.237Z,-2.30
2019-02-06T19:56:26.245Z,-2.40
2019-02-06T19:59:08.727Z,-2.40
2019-02-06T20:01:50.632Z,-2.40
2019-02-06T20:04:33.486Z,-2.60
2019-02-06T20:07:13.958Z,-2.60
2019-02-06T20:10:03.436Z,-2.60
2019-02-06T20:12:47.102Z,-2.60
2019-02-06T20:15:28.967Z,-2.70
2019-02-06T20:18:11.394Z,-2.70
2019-02-06T20:20:53.091Z,-2.70
2019-02-06T20:23:35.209Z,-2.80
2019-02-06T20:26:17.214Z,-2.80
2019-02-06T20:28:59.268Z,-2.90
2019-02-06T20:31:42.050Z,-2.90
2019-02-06T20:34:24.386Z,-2.90
2019-02-06T20:37:06.198Z,-2.90
2019-02-06T20:39:48.069Z,-2.90
2019-02-06T20:42:30.274Z,-3.00
2019-02-06T20:45:12.267Z,-3.00
2019-02-06T20:47:54.478Z,-3.10
2019-02-06T20:50:36.007Z,-3.10
2019-02-06T20:53:18.028Z,-3.10
2019-02-06T20:56:00.754Z,-3.10
2019-02-06T20:58:43.026Z,-3.20
2019-02-06T21:01:25.166Z,-3.20
2019-02-06T21:04:07.022Z,-2.90
2019-02-06T21:06:50.208Z,-2.50
2019-02-06T21:09:35.285Z,-2.40
2019-02-06T21:12:17.110Z,-2.60
2019-02-06T21:14:58.886Z,-2.60
2019-02-06T21:17:40.738Z,-2.70
2019-02-06T21:20:22.802Z,-2.90
2019-02-06T21:23:04.725Z,-3.00
2019-02-06T21:25:46.850Z,-3.10
2019-02-06T21:28:29.416Z,-3.20
2019-02-06T21:31:11.510Z,-3.30
2019-02-06T21:33:53.509Z,-3.40
2019-02-06T21:36:35.622Z,-3.40
2019-02-06T21:39:18.785Z,-3.50
2019-02-06T21:42:00.831Z,-3.50
2019-02-06T21:44:42.482Z,-3.60
2019-02-06T21:47:24.999Z,-3.60
2019-02-06T21:50:07.626Z,-3.60
2019-02-06T21:52:49.794Z,-3.70
2019-02-06T21:55:32.073Z,-3.60
2019-02-06T21:58:14.310Z,-3.60
2019-02-06T22:00:56.326Z,-3.60
2019-02-06T22:03:38.669Z,-3.70
2019-02-06T22:06:20.647Z,-3.60
2019-02-06T22:09:03.002Z,-3.70
2019-02-06T22:11:45.050Z,-3.70
2019-02-06T22:14:27.781Z,-3.70
2019-02-06T22:17:09.832Z,-3.80
2019-02-06T22:19:51.962Z,-3.80
2019-02-06T22:22:33.810Z,-3.90
2019-02-06T22:25:15.899Z,-4.00
2019-02-06T22:27:57.995Z,-4.00
2019-02-06T22:30:39.906Z,-4.00
2019-02-06T22:33:23.151Z,-4.10
2019-02-06T22:36:05.390Z,-4.10
2019-02-06T22:38:47.146Z,-4.20
2019-02-06T22:41:29.798Z,-4.20
2019-02-06T22:44:11.770Z,-4.30
2019-02-06T22:46:54.122Z,-4.30
2019-02-06T22:49:35.734Z,-4.30
2019-02-06T22:52:18.117Z,-4.30
2019-02-06T22:55:00.304Z,-4.30
2019-02-06T22:57:42.199Z,-4.30
2019-02-06T23:00:25.212Z,-4.30
2019-02-06T23:03:07.242Z,-4.30
2019-02-06T23:05:48.992Z,-4.30
2019-02-06T23:08:30.747Z,-4.30
2019-02-06T23:11:13.747Z,-4.30
2019-02-06T23:13:55.442Z,-4.30
2019-02-06T23:16:37.422Z,-4.30
2019-02-06T23:19:19.422Z,-4.30
2019-02-06T23:22:01.118Z,-4.40
2019-02-06T23:24:43.126Z,-4.50
2019-02-06T23:27:25.162Z,-4.50
2019-02-06T23:30:07.747Z,-4.50
2019-02-06T23:32:48.286Z,-4.50
2019-02-06T23:35:37.814Z,-4.50
2019-02-06T23:38:21.826Z,-4.60
2019-02-06T23:41:04.186Z,-4.60
2019-02-06T23:43:46.273Z,-4.70
2019-02-06T23:46:28.290Z,-4.70
2019-02-06T23:49:10.002Z,-4.70
2019-02-06T23:51:52.215Z,-4.80
2019-02-06T23:54:34.651Z,-4.80
2019-02-06T23:57:17.065Z,-4.80
2019-02-06T23:59:59.118Z,-4.80
